sensor_id;sensor_type;location;lat;lon;timestamp;pressure;altitude;pressure_sealevel;temperature;humidity
47154;BME280;32907;41.412;2.164;2023-12-20T00:02:14;101081.72;;;18.62;29.12
47154;BME280;32907;41.412;2.164;2023-12-20T00:04:42;101073.56;;;18.62;29.42
47154;BME280;32907;41.412;2.164;2023-12-20T00:07:10;101065.41;;;18.62;29.39
47154;BME280;32907;41.412;2.164;2023-12-20T00:09:38;101054.78;;;18.60;29.31
47154;BME280;32907;41.412;2.164;2023-12-20T00:12:07;101054.25;;;18.58;29.51
47154;BME280;32907;41.412;2.164;2023-12-20T00:14:35;101056.69;;;18.60;29.60
47154;BME280;32907;41.412;2.164;2023-12-20T00:17:04;101049.91;;;18.57;29.60
47154;BME280;32907;41.412;2.164;2023-12-20T00:19:32;101052.91;;;18.61;29.62
47154;BME280;32907;41.412;2.164;2023-12-20T00:22:00;101061.31;;;18.59;29.74
47154;BME280;32907;41.412;2.164;2023-12-20T00:24:28;101058.06;;;18.57;29.47
47154;BME280;32907;41.412;2.164;2023-12-20T00:26:56;101053.97;;;18.60;29.58
47154;BME280;32907;41.412;2.164;2023-12-20T00:29:24;101050.44;;;18.59;29.60
47154;BME280;32907;41.412;2.164;2023-12-20T00:31:52;101045.56;;;18.56;29.74
47154;BME280;32907;41.412;2.164;2023-12-20T00:34:21;101047.97;;;18.53;29.33
47154;BME280;32907;41.412;2.164;2023-12-20T00:36:49;101037.38;;;18.51;29.53
47154;BME280;32907;41.412;2.164;2023-12-20T00:39:17;101043.63;;;18.52;29.56
47154;BME280;32907;41.412;2.164;2023-12-20T00:41:45;101043.09;;;18.50;29.87
47154;BME280;32907;41.412;2.164;2023-12-20T00:44:14;101036.31;;;18.52;30.02
47154;BME280;32907;41.412;2.164;2023-12-20T00:46:42;101028.44;;;18.51;29.92
47154;BME280;32907;41.412;2.164;2023-12-20T00:49:11;101037.38;;;18.51;29.92
47154;BME280;32907;41.412;2.164;2023-12-20T00:51:39;101023.00;;;18.51;30.04
47154;BME280;32907;41.412;2.164;2023-12-20T00:54:07;101026.81;;;18.55;30.01
47154;BME280;32907;41.412;2.164;2023-12-20T00:56:35;101015.97;;;18.55;30.08
47154;BME280;32907;41.412;2.164;2023-12-20T00:59:03;101009.41;;;18.51;30.01
47154;BME280;32907;41.412;2.164;2023-12-20T01:01:31;101027.09;;;18.58;30.06
47154;BME280;32907;41.412;2.164;2023-12-20T01:04:01;101016.78;;;18.55;29.83
47154;BME280;32907;41.412;2.164;2023-12-20T01:06:29;101010.28;;;18.61;30.13
47154;BME280;32907;41.412;2.164;2023-12-20T01:08:57;101008.63;;;18.60;29.79
47154;BME280;32907;41.412;2.164;2023-12-20T01:11:25;101012.41;;;18.59;29.79
47154;BME280;32907;41.412;2.164;2023-12-20T01:13:53;101011.34;;;18.60;29.99
47154;BME280;32907;41.412;2.164;2023-12-20T01:16:21;101002.09;;;18.56;30.01
47154;BME280;32907;41.412;2.164;2023-12-20T01:18:49;101001.00;;;18.52;30.18
47154;BME280;32907;41.412;2.164;2023-12-20T01:21:17;101023.56;;;18.58;29.96
47154;BME280;32907;41.412;2.164;2023-12-20T01:23:45;101027.09;;;18.58;29.84
47154;BME280;32907;41.412;2.164;2023-12-20T01:26:14;101027.63;;;18.55;29.98
47154;BME280;32907;41.412;2.164;2023-12-20T01:28:43;101031.97;;;18.56;29.99
47154;BME280;32907;41.412;2.164;2023-12-20T01:31:11;101033.88;;;18.56;30.06
47154;BME280;32907;41.412;2.164;2023-12-20T01:33:39;101037.69;;;18.55;30.22
47154;BME280;32907;41.412;2.164;2023-12-20T01:36:08;101025.44;;;18.42;30.17
47154;BME280;32907;41.412;2.164;2023-12-20T01:38:36;101039.84;;;18.53;30.36
47154;BME280;32907;41.412;2.164;2023-12-20T01:41:04;101039.03;;;18.52;30.59
47154;BME280;32907;41.412;2.164;2023-12-20T01:43:33;101016.19;;;18.43;30.57
47154;BME280;32907;41.412;2.164;2023-12-20T01:46:17;101050.44;;;18.54;30.45
47154;BME280;32907;41.412;2.164;2023-12-20T01:48:48;101054.78;;;18.50;30.44
47154;BME280;32907;41.412;2.164;2023-12-20T01:51:16;101048.25;;;18.46;30.47
47154;BME280;32907;41.412;2.164;2023-12-20T01:53:45;101055.31;;;18.47;30.53
47154;BME280;32907;41.412;2.164;2023-12-20T01:56:15;101043.91;;;18.40;30.49
47154;BME280;32907;41.412;2.164;2023-12-20T01:58:45;100990.88;;;18.07;30.99
47154;BME280;32907;41.412;2.164;2023-12-20T02:01:15;101037.66;;;18.44;30.59
47154;BME280;32907;41.412;2.164;2023-12-20T02:03:43;101052.59;;;18.47;30.83
47154;BME280;32907;41.412;2.164;2023-12-20T02:06:12;101060.22;;;18.45;31.11
47154;BME280;32907;41.412;2.164;2023-12-20T02:08:40;101046.59;;;18.40;31.02
47154;BME280;32907;41.412;2.164;2023-12-20T02:11:08;101035.22;;;18.38;31.19
47154;BME280;32907;41.412;2.164;2023-12-20T02:13:37;101042.81;;;18.41;31.17
47154;BME280;32907;41.412;2.164;2023-12-20T02:16:05;101041.72;;;18.42;31.18
47154;BME280;32907;41.412;2.164;2023-12-20T02:18:35;101047.69;;;18.44;30.94
47154;BME280;32907;41.412;2.164;2023-12-20T02:21:05;101028.13;;;18.32;30.83
47154;BME280;32907;41.412;2.164;2023-12-20T02:23:33;101041.72;;;18.42;30.93
47154;BME280;32907;41.412;2.164;2023-12-20T02:26:03;101030.84;;;18.32;30.82
47154;BME280;32907;41.412;2.164;2023-12-20T02:28:32;101027.03;;;18.33;30.76
47154;BME280;32907;41.412;2.164;2023-12-20T02:31:01;101037.88;;;18.28;30.44
47154;BME280;32907;41.412;2.164;2023-12-20T02:33:29;101047.09;;;18.22;30.77
47154;BME280;32907;41.412;2.164;2023-12-20T02:35:57;101061.50;;;18.22;30.90
47154;BME280;32907;41.412;2.164;2023-12-20T02:38:25;101057.97;;;18.22;30.36
47154;BME280;32907;41.412;2.164;2023-12-20T02:40:54;101059.28;;;18.14;30.84
47154;BME280;32907;41.412;2.164;2023-12-20T02:43:22;101076.13;;;18.16;30.64
47154;BME280;32907;41.412;2.164;2023-12-20T02:45:50;101085.63;;;18.18;30.77
47154;BME280;32907;41.412;2.164;2023-12-20T02:48:18;101085.63;;;18.18;30.78
47154;BME280;32907;41.412;2.164;2023-12-20T02:50:47;101081.53;;;18.16;30.69
47154;BME280;32907;41.412;2.164;2023-12-20T02:53:17;101078.28;;;18.14;30.76
47154;BME280;32907;41.412;2.164;2023-12-20T02:55:46;101084.81;;;18.18;30.98
47154;BME280;32907;41.412;2.164;2023-12-20T02:58:14;101083.44;;;18.15;30.84
47154;BME280;32907;41.412;2.164;2023-12-20T03:00:42;101071.50;;;18.16;30.82
47154;BME280;32907;41.412;2.164;2023-12-20T03:03:10;101066.84;;;18.12;31.09
47154;BME280;32907;41.412;2.164;2023-12-20T03:05:38;101078.53;;;18.12;30.89
47154;BME280;32907;41.412;2.164;2023-12-20T03:08:06;101076.94;;;18.16;30.61
47154;BME280;32907;41.412;2.164;2023-12-20T03:10:35;101060.38;;;18.13;30.62
47154;BME280;32907;41.412;2.164;2023-12-20T03:13:03;101057.66;;;18.13;30.81
47154;BME280;32907;41.412;2.164;2023-12-20T03:15:31;101046.81;;;18.18;30.83
47154;BME280;32907;41.412;2.164;2023-12-20T03:18:00;101045.44;;;18.15;30.84
47154;BME280;32907;41.412;2.164;2023-12-20T03:20:29;101039.19;;;18.15;30.93
47154;BME280;32907;41.412;2.164;2023-12-20T03:23:00;101026.72;;;18.14;31.07
47154;BME280;32907;41.412;2.164;2023-12-20T03:25:29;101024.53;;;18.16;30.94
47154;BME280;32907;41.412;2.164;2023-12-20T03:27:57;101012.88;;;18.15;31.26
47154;BME280;32907;41.412;2.164;2023-12-20T03:30:26;101012.88;;;18.15;31.20
47154;BME280;32907;41.412;2.164;2023-12-20T03:32:54;101020.47;;;18.13;31.18
47154;BME280;32907;41.412;2.164;2023-12-20T03:35:22;101039.75;;;18.17;31.70
47154;BME280;32907;41.412;2.164;2023-12-20T03:37:50;101055.75;;;18.18;31.96
47154;BME280;32907;41.412;2.164;2023-12-20T03:40:19;101045.72;;;18.19;32.12
47154;BME280;32907;41.412;2.164;2023-12-20T03:42:47;101053.31;;;18.17;32.55
47154;BME280;32907;41.412;2.164;2023-12-20T03:45:15;101043.81;;;18.14;32.94
47154;BME280;32907;41.412;2.164;2023-12-20T03:47:43;101035.69;;;18.14;32.99
47154;BME280;32907;41.412;2.164;2023-12-20T03:50:11;101036.50;;;18.15;33.32
47154;BME280;32907;41.412;2.164;2023-12-20T03:52:40;101036.72;;;18.08;33.79
47154;BME280;32907;41.412;2.164;2023-12-20T03:55:08;101039.44;;;18.08;34.01
47154;BME280;32907;41.412;2.164;2023-12-20T03:57:36;101045.97;;;18.07;33.92
47154;BME280;32907;41.412;2.164;2023-12-20T04:00:05;101047.03;;;18.06;34.08
47154;BME280;32907;41.412;2.164;2023-12-20T04:02:41;101040.00;;;18.05;34.56
47154;BME280;32907;41.412;2.164;2023-12-20T04:05:10;101031.81;;;18.00;34.84
47154;BME280;32907;41.412;2.164;2023-12-20T04:07:38;101045.94;;;18.02;34.56
47154;BME280;32907;41.412;2.164;2023-12-20T04:10:07;101048.09;;;18.00;34.57
47154;BME280;32907;41.412;2.164;2023-12-20T04:12:36;101048.63;;;18.02;34.53
47154;BME280;32907;41.412;2.164;2023-12-20T04:15:04;101051.34;;;18.02;34.91
47154;BME280;32907;41.412;2.164;2023-12-20T04:17:37;101048.38;;;17.99;34.51
47154;BME280;32907;41.412;2.164;2023-12-20T04:20:06;101058.13;;;18.00;34.80
47154;BME280;32907;41.412;2.164;2023-12-20T04:22:34;101046.47;;;17.99;34.51
47154;BME280;32907;41.412;2.164;2023-12-20T04:25:02;101045.38;;;18.00;34.66
47154;BME280;32907;41.412;2.164;2023-12-20T04:27:31;101047.28;;;18.00;34.75
47154;BME280;32907;41.412;2.164;2023-12-20T04:29:59;101042.94;;;17.99;34.84
47154;BME280;32907;41.412;2.164;2023-12-20T04:32:27;101049.19;;;17.99;35.08
47154;BME280;32907;41.412;2.164;2023-12-20T04:34:56;101051.59;;;17.96;35.18
47154;BME280;32907;41.412;2.164;2023-12-20T04:37:24;101047.81;;;17.97;35.14
47154;BME280;32907;41.412;2.164;2023-12-20T04:39:53;101031.28;;;17.98;35.15
47154;BME280;32907;41.412;2.164;2023-12-20T04:42:21;101032.34;;;17.97;35.38
47154;BME280;32907;41.412;2.164;2023-12-20T04:44:49;101023.94;;;17.99;35.34
47154;BME280;32907;41.412;2.164;2023-12-20T04:47:18;101026.38;;;18.00;35.65
47154;BME280;32907;41.412;2.164;2023-12-20T04:49:46;101031.28;;;18.03;35.59
47154;BME280;32907;41.412;2.164;2023-12-20T04:52:14;101033.41;;;17.96;36.02
47154;BME280;32907;41.412;2.164;2023-12-20T04:54:42;101034.25;;;17.97;36.43
47154;BME280;32907;41.412;2.164;2023-12-20T04:57:11;101035.84;;;17.93;36.04
47154;BME280;32907;41.412;2.164;2023-12-20T04:59:40;101041.56;;;17.96;36.44
47154;BME280;32907;41.412;2.164;2023-12-20T05:02:09;101029.56;;;17.82;37.52
47154;BME280;32907;41.412;2.164;2023-12-20T05:04:37;101042.63;;;17.90;37.41
47154;BME280;32907;41.412;2.164;2023-12-20T05:07:05;101034.72;;;17.88;37.43
47154;BME280;32907;41.412;2.164;2023-12-20T05:09:34;100963.72;;;17.44;37.77
47154;BME280;32907;41.412;2.164;2023-12-20T05:12:02;100974.84;;;17.48;37.68
47154;BME280;32907;41.412;2.164;2023-12-20T05:14:30;101036.63;;;17.88;37.45
47154;BME280;32907;41.412;2.164;2023-12-20T05:16:58;101033.41;;;17.91;37.55
47154;BME280;32907;41.412;2.164;2023-12-20T05:19:26;101026.34;;;17.95;37.38
47154;BME280;32907;41.412;2.164;2023-12-20T05:21:54;101018.22;;;17.95;37.54
47154;BME280;32907;41.412;2.164;2023-12-20T05:24:23;101006.28;;;17.91;38.11
47154;BME280;32907;41.412;2.164;2023-12-20T05:26:51;101021.47;;;17.92;38.39
47154;BME280;32907;41.412;2.164;2023-12-20T05:29:20;101022.00;;;17.94;39.08
47154;BME280;32907;41.412;2.164;2023-12-20T05:31:49;101022.31;;;17.98;39.09
47154;BME280;32907;41.412;2.164;2023-12-20T05:34:17;101009.25;;;17.89;38.58
47154;BME280;32907;41.412;2.164;2023-12-20T05:36:46;101013.88;;;17.94;38.88
47154;BME280;32907;41.412;2.164;2023-12-20T05:39:14;101014.16;;;17.93;39.11
47154;BME280;32907;41.412;2.164;2023-12-20T05:41:42;101001.34;;;17.83;38.71
47154;BME280;32907;41.412;2.164;2023-12-20T05:44:10;101011.41;;;17.87;38.88
47154;BME280;32907;41.412;2.164;2023-12-20T05:46:38;101013.88;;;17.89;38.50
47154;BME280;32907;41.412;2.164;2023-12-20T05:49:07;101008.44;;;17.89;38.30
47154;BME280;32907;41.412;2.164;2023-12-20T05:51:35;100995.13;;;17.87;37.91
47154;BME280;32907;41.412;2.164;2023-12-20T05:54:03;101010.38;;;17.99;38.12
47154;BME280;32907;41.412;2.164;2023-12-20T05:56:31;101010.94;;;18.06;38.09
47154;BME280;32907;41.412;2.164;2023-12-20T05:58:59;101005.25;;;18.12;37.90
47154;BME280;32907;41.412;2.164;2023-12-20T06:01:27;100996.59;;;18.15;37.74
47154;BME280;32907;41.412;2.164;2023-12-20T06:03:55;100991.44;;;18.19;37.92
47154;BME280;32907;41.412;2.164;2023-12-20T06:06:24;100986.81;;;18.20;37.50
47154;BME280;32907;41.412;2.164;2023-12-20T06:08:52;100992.28;;;18.25;37.60
47154;BME280;32907;41.412;2.164;2023-12-20T06:11:20;100989.31;;;18.31;38.11
47154;BME280;32907;41.412;2.164;2023-12-20T06:13:48;100992.03;;;18.31;38.44
47154;BME280;32907;41.412;2.164;2023-12-20T06:16:19;100992.28;;;18.35;37.54
47154;BME280;32907;41.412;2.164;2023-12-20T06:18:48;100996.63;;;18.36;36.94
47154;BME280;32907;41.412;2.164;2023-12-20T06:21:16;100987.41;;;18.37;37.39
47154;BME280;32907;41.412;2.164;2023-12-20T06:23:45;100986.34;;;18.38;37.20
47154;BME280;32907;41.412;2.164;2023-12-20T06:26:13;100988.50;;;18.41;37.01
47154;BME280;32907;41.412;2.164;2023-12-20T06:28:41;100986.06;;;18.39;37.07
47154;BME280;32907;41.412;2.164;2023-12-20T06:31:10;100988.53;;;18.46;37.54
47154;BME280;32907;41.412;2.164;2023-12-20T06:33:39;100990.69;;;18.49;37.78
47154;BME280;32907;41.412;2.164;2023-12-20T06:36:12;100995.59;;;18.57;37.86
47154;BME280;32907;41.412;2.164;2023-12-20T06:38:41;101000.47;;;18.60;37.88
47154;BME280;32907;41.412;2.164;2023-12-20T06:41:13;100988.25;;;18.63;37.82
47154;BME280;32907;41.412;2.164;2023-12-20T06:43:42;100974.69;;;18.63;37.51
47154;BME280;32907;41.412;2.164;2023-12-20T06:46:17;100963.53;;;18.64;36.94
47154;BME280;32907;41.412;2.164;2023-12-20T06:48:46;100960.00;;;18.64;36.75
47154;BME280;32907;41.412;2.164;2023-12-20T06:51:15;100940.72;;;18.50;36.74
47154;BME280;32907;41.412;2.164;2023-12-20T06:53:44;100957.28;;;18.59;36.79
47154;BME280;32907;41.412;2.164;2023-12-20T06:56:12;100961.91;;;18.58;36.22
47154;BME280;32907;41.412;2.164;2023-12-20T06:58:45;100966.25;;;18.54;36.74
47154;BME280;32907;41.412;2.164;2023-12-20T07:01:14;100965.72;;;18.57;36.50
47154;BME280;32907;41.412;2.164;2023-12-20T07:03:43;100964.09;;;18.56;36.65
47154;BME280;32907;41.412;2.164;2023-12-20T07:06:11;100963.53;;;18.59;36.39
47154;BME280;32907;41.412;2.164;2023-12-20T07:08:40;100963.53;;;18.59;36.75
47154;BME280;32907;41.412;2.164;2023-12-20T07:11:08;100965.72;;;18.62;36.51
47154;BME280;32907;41.412;2.164;2023-12-20T07:13:36;100964.63;;;18.63;36.94
47154;BME280;32907;41.412;2.164;2023-12-20T07:16:04;100970.06;;;18.63;36.76
47154;BME280;32907;41.412;2.164;2023-12-20T07:18:32;100988.25;;;18.63;36.53
47154;BME280;32907;41.412;2.164;2023-12-20T07:21:01;100979.81;;;18.59;36.16
47154;BME280;32907;41.412;2.164;2023-12-20T07:23:29;100978.75;;;18.45;36.01
47154;BME280;32907;41.412;2.164;2023-12-20T07:25:57;100973.31;;;18.50;35.56
47154;BME280;32907;41.412;2.164;2023-12-20T07:28:25;100970.06;;;18.48;35.03
47154;BME280;32907;41.412;2.164;2023-12-20T07:30:53;100977.66;;;18.46;35.00
47154;BME280;32907;41.412;2.164;2023-12-20T07:33:22;100963.81;;;18.37;35.16
47154;BME280;32907;41.412;2.164;2023-12-20T07:35:50;100962.97;;;18.42;34.78
47154;BME280;32907;41.412;2.164;2023-12-20T07:38:20;100963.28;;;18.45;34.82
47154;BME280;32907;41.412;2.164;2023-12-20T07:40:48;100959.19;;;18.48;34.28
47154;BME280;32907;41.412;2.164;2023-12-20T07:43:16;100959.16;;;18.43;34.65
47154;BME280;32907;41.412;2.164;2023-12-20T07:45:44;100966.22;;;18.44;34.19
47154;BME280;32907;41.412;2.164;2023-12-20T07:48:13;100971.13;;;18.42;34.53
47154;BME280;32907;41.412;2.164;2023-12-20T07:50:41;100963.53;;;18.39;35.02
47154;BME280;32907;41.412;2.164;2023-12-20T07:53:10;100976.03;;;18.50;35.06
47154;BME280;32907;41.412;2.164;2023-12-20T07:55:39;100983.06;;;18.51;34.55
47154;BME280;32907;41.412;2.164;2023-12-20T07:58:07;100984.72;;;18.52;34.50
47154;BME280;32907;41.412;2.164;2023-12-20T08:00:35;100988.78;;;18.50;34.05
47154;BME280;32907;41.412;2.164;2023-12-20T08:03:03;100984.44;;;18.49;33.58
47154;BME280;32907;41.412;2.164;2023-12-20T08:05:32;100992.88;;;18.47;33.95
47154;BME280;32907;41.412;2.164;2023-12-20T08:08:00;100983.34;;;18.44;33.84
47154;BME280;32907;41.412;2.164;2023-12-20T08:10:28;100982.00;;;18.37;34.09
47154;BME280;32907;41.412;2.164;2023-12-20T08:12:58;100982.25;;;18.35;34.29
47154;BME280;32907;41.412;2.164;2023-12-20T08:15:26;100986.31;;;18.33;34.25
47154;BME280;32907;41.412;2.164;2023-12-20T08:17:54;100979.81;;;18.39;34.32
47154;BME280;32907;41.412;2.164;2023-12-20T08:20:24;100982.53;;;18.39;34.24
47154;BME280;32907;41.412;2.164;2023-12-20T08:23:06;100987.97;;;18.39;34.21
47154;BME280;32907;41.412;2.164;2023-12-20T08:25:34;100973.28;;;18.35;33.89
47154;BME280;32907;41.412;2.164;2023-12-20T08:28:03;100979.81;;;18.44;33.52
47154;BME280;32907;41.412;2.164;2023-12-20T08:30:32;100985.00;;;18.45;33.68
47154;BME280;32907;41.412;2.164;2023-12-20T08:33:00;100992.31;;;18.50;33.96
47154;BME280;32907;41.412;2.164;2023-12-20T08:35:29;100985.78;;;18.51;34.15
47154;BME280;32907;41.412;2.164;2023-12-20T08:37:57;100991.50;;;18.60;34.27
47154;BME280;32907;41.412;2.164;2023-12-20T08:40:25;100978.22;;;18.68;33.88
47154;BME280;32907;41.412;2.164;2023-12-20T08:42:54;100970.66;;;18.70;33.82
47154;BME280;32907;41.412;2.164;2023-12-20T08:45:23;100988.28;;;18.73;33.89
47154;BME280;32907;41.412;2.164;2023-12-20T08:47:52;101002.44;;;18.70;33.78
47154;BME280;32907;41.412;2.164;2023-12-20T08:50:20;101007.31;;;18.68;33.85
47154;BME280;32907;41.412;2.164;2023-12-20T08:52:48;101018.19;;;18.73;33.98
47154;BME280;32907;41.412;2.164;2023-12-20T08:55:17;101008.09;;;18.68;33.79
47154;BME280;32907;41.412;2.164;2023-12-20T08:57:46;101035.28;;;18.84;34.13
47154;BME280;32907;41.412;2.164;2023-12-20T09:00:15;101037.19;;;18.83;33.13
47154;BME280;32907;41.412;2.164;2023-12-20T09:02:43;101037.22;;;18.78;32.87
47154;BME280;32907;41.412;2.164;2023-12-20T09:05:12;101040.72;;;18.73;32.33
47154;BME280;32907;41.412;2.164;2023-12-20T09:07:40;101045.91;;;18.70;32.42
47154;BME280;32907;41.412;2.164;2023-12-20T09:10:08;101045.09;;;18.69;32.40
47154;BME280;32907;41.412;2.164;2023-12-20T09:12:36;101057.56;;;18.70;36.22
47154;BME280;32907;41.412;2.164;2023-12-20T09:15:08;101062.47;;;18.73;33.44
47154;BME280;32907;41.412;2.164;2023-12-20T09:17:36;101060.28;;;18.76;32.82
47154;BME280;32907;41.412;2.164;2023-12-20T09:20:05;101066.00;;;18.74;32.71
47154;BME280;32907;41.412;2.164;2023-12-20T09:22:36;101064.09;;;18.69;32.93
47154;BME280;32907;41.412;2.164;2023-12-20T09:25:06;101066.53;;;18.71;32.85
47154;BME280;32907;41.412;2.164;2023-12-20T09:27:34;101063.53;;;18.67;32.57
47154;BME280;32907;41.412;2.164;2023-12-20T09:30:03;101068.44;;;18.70;32.69
47154;BME280;32907;41.412;2.164;2023-12-20T09:32:33;101071.16;;;18.70;32.88
47154;BME280;32907;41.412;2.164;2023-12-20T09:35:02;101067.91;;;18.73;33.15
47154;BME280;32907;41.412;2.164;2023-12-20T09:37:30;101066.00;;;18.79;34.09
47154;BME280;32907;41.412;2.164;2023-12-20T09:39:59;101073.34;;;18.84;33.60
47154;BME280;32907;41.412;2.164;2023-12-20T09:42:56;101077.97;;;18.88;32.69
47154;BME280;32907;41.412;2.164;2023-12-20T09:45:25;101059.22;;;18.82;33.02
47154;BME280;32907;41.412;2.164;2023-12-20T09:47:54;101070.63;;;18.89;32.32
47154;BME280;32907;41.412;2.164;2023-12-20T09:50:24;101060.84;;;18.88;32.56
47154;BME280;32907;41.412;2.164;2023-12-20T09:52:54;101061.41;;;18.90;32.40
47154;BME280;32907;41.412;2.164;2023-12-20T09:55:27;101054.34;;;18.89;32.78
47154;BME280;32907;41.412;2.164;2023-12-20T09:57:59;101059.78;;;18.94;32.62
47154;BME280;32907;41.412;2.164;2023-12-20T10:00:28;101042.91;;;18.82;32.39
47154;BME280;32907;41.412;2.164;2023-12-20T10:02:57;101063.31;;;18.94;31.85
47154;BME280;32907;41.412;2.164;2023-12-20T10:05:31;101057.06;;;18.94;32.06
47154;BME280;32907;41.412;2.164;2023-12-20T10:08:00;101055.97;;;18.90;32.30
47154;BME280;32907;41.412;2.164;2023-12-20T10:10:30;101057.06;;;18.94;31.82
47154;BME280;32907;41.412;2.164;2023-12-20T10:13:12;101054.88;;;18.96;32.07
47154;BME280;32907;41.412;2.164;2023-12-20T10:15:41;101049.44;;;18.96;32.22
47154;BME280;32907;41.412;2.164;2023-12-20T10:18:12;101051.06;;;18.97;32.06
47154;BME280;32907;41.412;2.164;2023-12-20T10:20:41;101024.44;;;18.84;32.08
47154;BME280;32907;41.412;2.164;2023-12-20T10:23:11;101045.91;;;19.00;33.80
47154;BME280;32907;41.412;2.164;2023-12-20T10:25:41;101045.91;;;19.00;34.85
47154;BME280;32907;41.412;2.164;2023-12-20T10:28:12;101038.03;;;18.99;35.72
47154;BME280;32907;41.412;2.164;2023-12-20T10:30:41;101040.19;;;18.97;34.61
47154;BME280;32907;41.412;2.164;2023-12-20T10:33:10;101035.88;;;18.86;36.19
47154;BME280;32907;41.412;2.164;2023-12-20T10:35:40;101034.78;;;18.97;34.60
47154;BME280;32907;41.412;2.164;2023-12-20T10:38:15;100998.38;;;18.78;35.89
47154;BME280;32907;41.412;2.164;2023-12-20T10:40:45;101018.19;;;18.98;34.36
47154;BME280;32907;41.412;2.164;2023-12-20T10:43:15;101013.84;;;18.97;34.40
47154;BME280;32907;41.412;2.164;2023-12-20T10:45:43;101010.84;;;18.99;33.84
47154;BME280;32907;41.412;2.164;2023-12-20T10:48:12;100997.81;;;19.01;33.71
47154;BME280;32907;41.412;2.164;2023-12-20T10:50:41;100999.44;;;19.02;33.62
47154;BME280;32907;41.412;2.164;2023-12-20T10:53:10;101005.94;;;19.06;33.37
47154;BME280;32907;41.412;2.164;2023-12-20T10:55:41;101006.47;;;19.08;33.71
47154;BME280;32907;41.412;2.164;2023-12-20T10:58:10;100999.72;;;19.11;33.30
47154;BME280;32907;41.412;2.164;2023-12-20T11:00:40;100996.97;;;19.06;32.85
47154;BME280;32907;41.412;2.164;2023-12-20T11:03:10;100995.38;;;19.10;32.44
47154;BME280;32907;41.412;2.164;2023-12-20T11:06:03;100991.53;;;19.06;32.42
47154;BME280;32907;41.412;2.164;2023-12-20T11:09:13;100996.19;;;19.10;32.28
47154;BME280;32907;41.412;2.164;2023-12-20T11:14:34;100989.94;;;19.10;31.78
47154;BME280;32907;41.412;2.164;2023-12-20T11:17:10;100966.28;;;18.95;32.21
47154;BME280;32907;41.412;2.164;2023-12-20T11:22:26;100985.31;;;19.10;32.15
47154;BME280;32907;41.412;2.164;2023-12-20T11:25:07;100972.81;;;19.04;32.23
47154;BME280;32907;41.412;2.164;2023-12-20T11:27:42;100964.91;;;18.97;32.20
47154;BME280;32907;41.412;2.164;2023-12-20T11:30:14;100982.03;;;19.08;32.20
47154;BME280;32907;41.412;2.164;2023-12-20T11:32:45;100967.38;;;19.04;31.85
47154;BME280;32907;41.412;2.164;2023-12-20T11:37:43;100965.19;;;19.11;32.13
47154;BME280;32907;41.412;2.164;2023-12-20T11:40:17;100969.53;;;19.17;32.21
47154;BME280;32907;41.412;2.164;2023-12-20T11:42:49;100941.25;;;19.13;31.90
47154;BME280;32907;41.412;2.164;2023-12-20T11:45:20;100944.22;;;19.22;32.29
47154;BME280;32907;41.412;2.164;2023-12-20T11:47:51;100937.41;;;19.24;32.22
47154;BME280;32907;41.412;2.164;2023-12-20T11:50:22;100934.44;;;19.26;32.48
47154;BME280;32907;41.412;2.164;2023-12-20T11:52:52;100913.50;;;19.26;32.45
47154;BME280;32907;41.412;2.164;2023-12-20T11:55:23;100928.97;;;19.36;32.33
47154;BME280;32907;41.412;2.164;2023-12-20T11:57:54;100924.88;;;19.39;32.67
47154;BME280;32907;41.412;2.164;2023-12-20T12:00:22;100925.41;;;19.41;32.23
47154;BME280;32907;41.412;2.164;2023-12-20T12:02:58;100909.06;;;19.41;32.36
47154;BME280;32907;41.412;2.164;2023-12-20T12:05:27;100918.03;;;19.46;32.22
47154;BME280;32907;41.412;2.164;2023-12-20T12:07:56;100916.41;;;19.45;32.20
47154;BME280;32907;41.412;2.164;2023-12-20T12:10:25;100915.31;;;19.46;32.19
47154;BME280;32907;41.412;2.164;2023-12-20T12:12:53;100918.31;;;19.50;31.86
47154;BME280;32907;41.412;2.164;2023-12-20T12:15:22;100906.06;;;19.52;32.12
47154;BME280;32907;41.412;2.164;2023-12-20T12:17:56;100887.31;;;19.51;31.67
47154;BME280;32907;41.412;2.164;2023-12-20T12:20:25;100889.44;;;19.54;32.00
47154;BME280;32907;41.412;2.164;2023-12-20T12:23:03;100890.56;;;19.53;31.70
47154;BME280;32907;41.412;2.164;2023-12-20T12:25:34;100887.81;;;19.53;32.32
47154;BME280;32907;41.412;2.164;2023-12-20T12:28:08;100904.69;;;19.55;32.63
47154;BME280;32907;41.412;2.164;2023-12-20T12:30:36;100903.34;;;19.58;32.61
47154;BME280;32907;41.412;2.164;2023-12-20T12:33:13;100908.50;;;19.59;32.99
47154;BME280;32907;41.412;2.164;2023-12-20T12:35:41;100910.13;;;19.60;33.77
47154;BME280;32907;41.412;2.164;2023-12-20T12:38:11;100901.69;;;19.62;33.87
47154;BME280;32907;41.412;2.164;2023-12-20T12:40:39;100893.28;;;19.58;33.21
47154;BME280;32907;41.412;2.164;2023-12-20T12:43:08;100896.53;;;19.60;32.90
47154;BME280;32907;41.412;2.164;2023-12-20T12:45:36;100900.34;;;19.59;32.64
47154;BME280;32907;41.412;2.164;2023-12-20T12:48:05;100887.03;;;19.58;32.83
47154;BME280;32907;41.412;2.164;2023-12-20T12:50:33;100867.41;;;19.55;33.06
47154;BME280;32907;41.412;2.164;2023-12-20T12:53:02;100861.72;;;19.52;32.52
47154;BME280;32907;41.412;2.164;2023-12-20T12:55:30;100864.16;;;19.48;32.74
47154;BME280;32907;41.412;2.164;2023-12-20T12:57:58;100870.44;;;19.49;32.63
47154;BME280;32907;41.412;2.164;2023-12-20T13:00:27;100836.22;;;19.33;32.86
47154;BME280;32907;41.412;2.164;2023-12-20T13:02:55;100853.59;;;19.47;32.93
47154;BME280;32907;41.412;2.164;2023-12-20T13:05:23;100846.81;;;19.44;32.91
47154;BME280;32907;41.412;2.164;2023-12-20T13:07:52;100849.22;;;19.51;32.96
47154;BME280;32907;41.412;2.164;2023-12-20T13:10:20;100840.50;;;19.54;32.93